Emmett, Michigan
Current Conditions -  °F | °C
As of 4:37 PM on Saturday 22 Nov 2014 (Local Time) from KPHN Reporting Station
Overcast Overcast  
Wind Chill: 36°   Ceiling: 1000
Heat Index: 41°   Visibility: 7mi
Dew Point: 37°   Wind: 7mph
Humidity: 87%   Direction: 210°SSW
Pressure: 29.94"   Gusts: NA
Location:  42.99°N, 82.76°W
Report Text: KPHN 222137Z AUTO 21006KT 7SM OVC010 05/03 A2994 RMK AO2
Loading
Personal Weather Stations






























Interactive Weather Map New forecast layout! Learn more

10-Day Weather Forecast

Advertisements
Track Severe Weather on mobile